Time;durP1;ratioP1;P1;durP2;ratioP2;P2;SDS_P1;SDS_P2;PMS_P1;PMS_P2;Temp;Humidity;BMP_temperature;BMP_pressure;BME280_temperature;BME280_humidity;BME280_pressure;Samples;Min_cycle;Max_cycle;Signal;HPM_P1;HPM_P2
2021/12/13 08:12:38;;;;;;;109.63;41.92;;;9.30;99.90;;;;;;5121508;27;20987;-78
2021/12/13 08:15:15;;;;;;;101.57;41.15;;;9.20;99.90;;;;;;5098671;28;20050;-77
2021/12/13 08:17:54;;;;;;;110.68;40.65;;;9.20;99.90;;;;;;5083504;28;20051;-76
2021/12/13 08:20:33;;;;;;;107.72;40.28;;;9.20;99.90;;;;;;5085660;28;20468;-76
2021/12/13 08:23:01;;;;;;;96.35;37.63;;;9.30;99.90;;;;;;5082140;28;20039;-76
2021/12/13 08:25:34;;;;;;;91.35;35.47;;;9.30;99.90;;;;;;5104513;28;20059;-75
2021/12/13 08:28:15;;;;;;;90.20;37.83;;;9.30;99.90;;;;;;5104656;28;20038;-76
2021/12/13 08:30:56;;;;;;;83.35;34.78;;;9.30;99.90;;;;;;5088291;28;20036;-77
2021/12/13 08:33:36;;;;;;;80.28;34.22;;;9.30;99.90;;;;;;5103880;28;20079;-76
2021/12/13 08:36:36;;;;;;;90.53;35.65;;;9.40;99.90;;;;;;5113127;27;20032;-76
2021/12/13 08:39:07;;;;;;;82.97;33.30;;;9.40;99.90;;;;;;5094212;28;20037;-76
2021/12/13 08:41:47;;;;;;;77.68;33.85;;;9.40;99.90;;;;;;5097120;28;20404;-76
2021/12/13 08:44:12;;;;;;;86.97;33.83;;;9.40;99.90;;;;;;5095767;28;20044;-76
2021/12/13 08:46:56;;;;;;;77.50;34.10;;;9.40;99.90;;;;;;5080205;28;20256;-76
2021/12/13 08:49:51;;;;;;;75.57;31.83;;;9.40;99.90;;;;;;5106961;27;20404;-75
2021/12/13 08:52:27;;;;;;;74.05;32.30;;;9.40;99.90;;;;;;5087623;28;20425;-76
2021/12/13 08:55:14;;;;;;;70.95;31.48;;;9.40;99.90;;;;;;5080037;28;20123;-78
2021/12/13 08:57:54;;;;;;;63.83;28.65;;;9.40;99.90;;;;;;5120534;27;20054;-81
2021/12/13 09:00:32;;;;;;;62.53;30.63;;;9.50;99.90;;;;;;5072948;28;20110;-77
2021/12/13 09:03:10;;;;;;;62.47;28.88;;;9.50;99.90;;;;;;5096658;28;20032;-77
2021/12/13 09:05:39;;;;;;;60.33;28.52;;;9.50;99.90;;;;;;5096183;28;20067;-78
2021/12/13 09:08:12;;;;;;;57.88;27.55;;;9.50;99.90;;;;;;5113213;27;20346;-78
2021/12/13 09:10:41;;;;;;;61.67;27.70;;;9.50;99.90;;;;;;5109319;27;20134;-76
2021/12/13 09:13:08;;;;;;;61.38;27.60;;;9.50;99.90;;;;;;5093158;28;20123;-76
2021/12/13 09:15:35;;;;;;;63.80;28.63;;;9.50;99.90;;;;;;5093216;28;20254;-77
2021/12/13 09:18:02;;;;;;;59.50;28.88;;;9.50;99.90;;;;;;5083199;28;20055;-77
2021/12/13 09:20:38;;;;;;;57.30;27.50;;;9.50;99.90;;;;;;5111275;28;20176;-76
2021/12/13 09:23:21;;;;;;;60.55;27.58;;;9.50;99.90;;;;;;5084402;28;20213;-78
2021/12/13 09:25:50;;;;;;;57.10;27.05;;;9.50;99.90;;;;;;5086663;28;20093;-82
2021/12/13 09:28:29;;;;;;;65.78;28.42;;;9.50;99.90;;;;;;5088009;28;20542;-76
2021/12/13 09:31:15;;;;;;;54.47;26.58;;;9.50;99.90;;;;;;5080342;28;20038;-77
2021/12/13 09:33:48;;;;;;;57.15;28.38;;;9.50;99.90;;;;;;5082840;28;20468;-76
2021/12/13 09:36:19;;;;;;;56.63;27.75;;;9.50;99.90;;;;;;5069234;28;20186;-77
2021/12/13 09:38:55;;;;;;;51.22;26.30;;;9.50;99.90;;;;;;5103552;27;20494;-76
2021/12/13 09:41:30;;;;;;;51.30;26.33;;;9.50;99.90;;;;;;5077318;28;20040;-77
2021/12/13 09:44:00;;;;;;;62.78;28.23;;;9.50;99.90;;;;;;5105403;27;20039;-77
2021/12/13 09:46:44;;;;;;;56.47;26.65;;;9.60;99.90;;;;;;5072325;28;20040;-77
2021/12/13 09:49:21;;;;;;;55.75;26.10;;;9.60;99.90;;;;;;5105091;27;20131;-76
2021/12/13 09:52:01;;;;;;;52.15;24.75;;;9.60;99.90;;;;;;5105791;27;20111;-76
2021/12/13 09:54:37;;;;;;;55.63;26.15;;;9.60;99.90;;;;;;5102897;27;20040;-77
2021/12/13 09:57:08;;;;;;;49.38;24.17;;;9.60;99.90;;;;;;5105985;27;20558;-76
2021/12/13 09:59:38;;;;;;;52.03;24.98;;;9.70;99.90;;;;;;5090968;28;20449;-77
2021/12/13 10:02:11;;;;;;;48.95;24.70;;;9.70;99.90;;;;;;5087389;28;20397;-77
2021/12/13 10:04:42;;;;;;;45.65;25.08;;;9.70;99.90;;;;;;5091861;28;20036;-76
2021/12/13 10:07:20;;;;;;;43.83;22.48;;;9.70;99.90;;;;;;5088668;28;20429;-77
2021/12/13 10:09:50;;;;;;;38.58;22.50;;;9.70;99.90;;;;;;5106256;27;20054;-76
2021/12/13 10:12:22;;;;;;;37.78;20.98;;;9.70;99.90;;;;;;5096750;28;20098;-76
2021/12/13 10:14:58;;;;;;;46.28;22.15;;;9.70;99.90;;;;;;5073388;28;20039;-76
2021/12/13 10:17:28;;;;;;;45.65;24.02;;;9.70;99.90;;;;;;5073809;28;20044;-78
2021/12/13 10:19:58;;;;;;;47.70;22.92;;;9.70;99.90;;;;;;5076542;28;20036;-76
2021/12/13 10:22:27;;;;;;;42.25;21.65;;;9.70;99.90;;;;;;5106758;27;20112;-76
2021/12/13 10:25:20;;;;;;;48.13;22.88;;;9.70;99.90;;;;;;5068869;28;20131;-76
2021/12/13 10:27:47;;;;;;;38.78;21.23;;;9.70;99.90;;;;;;5096116;28;20123;-76
2021/12/13 10:30:32;;;;;;;46.83;23.77;;;9.70;99.90;;;;;;5096468;28;20044;-77
2021/12/13 10:32:59;;;;;;;39.45;21.25;;;9.70;99.90;;;;;;5071576;28;20043;-77
2021/12/13 10:35:31;;;;;;;39.63;22.08;;;9.70;99.90;;;;;;5066895;28;20066;-77
2021/12/13 10:38:01;;;;;;;44.80;22.90;;;9.70;99.90;;;;;;5106165;27;20131;-77
2021/12/13 10:40:35;;;;;;;42.28;21.38;;;9.70;99.90;;;;;;5089361;28;20051;-76
2021/12/13 10:43:10;;;;;;;35.65;21.00;;;9.70;99.90;;;;;;5107330;27;20050;-76
2021/12/13 10:45:42;;;;;;;41.72;20.33;;;9.70;99.90;;;;;;5075621;28;20158;-77
2021/12/13 10:48:11;;;;;;;38.55;20.73;;;9.70;99.90;;;;;;5091010;28;20036;-77
2021/12/13 10:50:53;;;;;;;35.85;20.15;;;9.70;99.90;;;;;;5082133;28;20040;-76
2021/12/13 10:53:23;;;;;;;36.00;19.05;;;9.70;99.90;;;;;;5100905;28;20054;-76
2021/12/13 10:55:53;;;;;;;36.22;19.58;;;9.70;99.90;;;;;;5071728;28;20051;-76
2021/12/13 10:58:29;;;;;;;33.55;18.63;;;9.70;99.90;;;;;;5069855;28;20043;-77
2021/12/13 11:01:21;;;;;;;40.78;19.02;;;9.80;99.90;;;;;;5086653;28;20054;-77
2021/12/13 11:03:49;;;;;;;36.25;19.65;;;9.80;99.90;;;;;;5094211;28;20036;-77
2021/12/13 11:06:16;;;;;;;35.65;18.35;;;9.80;99.90;;;;;;5069778;28;20153;-77
2021/12/13 11:08:42;;;;;;;37.72;19.55;;;9.80;99.90;;;;;;5068658;28;20120;-77
2021/12/13 11:11:17;;;;;;;32.20;18.10;;;9.80;99.90;;;;;;5089794;28;20064;-77
2021/12/13 11:13:43;;;;;;;35.63;18.73;;;9.80;99.90;;;;;;5078454;28;20516;-76
2021/12/13 11:16:22;;;;;;;32.75;16.73;;;9.80;99.90;;;;;;5066416;28;20040;-77
2021/12/13 11:18:48;;;;;;;34.88;17.50;;;9.80;99.90;;;;;;5067236;28;20040;-76
2021/12/13 11:21:25;;;;;;;31.33;17.00;;;9.90;99.90;;;;;;5079113;28;20144;-77
2021/12/13 11:23:52;;;;;;;34.08;18.48;;;9.90;99.90;;;;;;5079589;28;20516;-76
2021/12/13 11:26:22;;;;;;;33.92;18.20;;;9.90;99.90;;;;;;5075413;28;20044;-78
2021/12/13 11:28:49;;;;;;;37.78;18.80;;;9.90;99.90;;;;;;5081008;28;20446;-77
2021/12/13 11:31:22;;;;;;;35.50;16.98;;;9.90;99.90;;;;;;5082417;28;20044;-77
2021/12/13 11:34:04;;;;;;;28.02;16.02;;;9.90;99.90;;;;;;5064820;28;20379;-77
2021/12/13 11:37:08;;;;;;;31.85;17.27;;;9.90;99.90;;;;;;5076397;28;20066;-77
2021/12/13 11:40:07;;;;;;;36.63;17.90;;;9.90;99.90;;;;;;5081270;28;20548;-77
2021/12/13 11:43:09;;;;;;;30.58;16.90;;;9.90;99.90;;;;;;5094346;28;20735;-78
2021/12/13 11:46:05;;;;;;;31.60;17.60;;;9.90;99.90;;;;;;5080327;28;20089;-77
2021/12/13 11:48:49;;;;;;;36.58;17.52;;;9.90;99.90;;;;;;5077343;28;20047;-78
2021/12/13 11:51:55;;;;;;;32.55;17.40;;;9.90;99.90;;;;;;5062182;28;20085;-78
2021/12/13 11:54:43;;;;;;;32.10;17.88;;;9.90;99.90;;;;;;5080191;28;20028;-77
2021/12/13 11:58:08;;;;;;;31.80;16.48;;;9.90;99.90;;;;;;5078331;28;20489;-77
2021/12/13 12:01:11;;;;;;;32.45;16.95;;;9.90;99.90;;;;;;5082182;28;20036;-80
2021/12/13 12:04:14;;;;;;;35.00;19.00;;;10.00;99.90;;;;;;5078919;28;20069;-77
2021/12/13 12:07:13;;;;;;;30.42;18.30;;;9.90;99.90;;;;;;5094981;28;20079;-80
2021/12/13 12:10:25;;;;;;;36.97;21.35;;;9.90;99.90;;;;;;5064490;28;20046;-83
2021/12/13 12:13:09;;;;;;;33.83;17.95;;;10.00;99.90;;;;;;5082931;28;20055;-82
2021/12/13 12:15:40;;;;;;;33.30;18.77;;;9.90;99.90;;;;;;5097261;28;20059;-77
2021/12/13 12:18:10;;;;;;;38.38;21.90;;;9.90;99.90;;;;;;5064366;28;20040;-84
2021/12/13 12:20:41;;;;;;;41.30;25.10;;;10.00;99.90;;;;;;5082624;28;20044;-78
2021/12/13 12:23:28;;;;;;;52.85;30.45;;;10.00;99.90;;;;;;5075701;28;20028;-79
2021/12/13 12:25:57;;;;;;;41.97;22.17;;;10.00;99.90;;;;;;5065041;28;20032;-78
2021/12/13 12:28:23;;;;;;;58.72;37.95;;;9.90;99.90;;;;;;5064083;28;20478;-78
2021/12/13 12:30:53;;;;;;;36.17;19.55;;;10.00;99.90;;;;;;5079581;28;20032;-84
2021/12/13 12:33:36;;;;;;;38.78;24.58;;;10.00;99.90;;;;;;5084044;28;20133;-78
2021/12/13 12:36:22;;;;;;;33.53;21.20;;;10.00;99.90;;;;;;5082971;28;20478;-78
2021/12/13 12:39:06;;;;;;;31.17;20.40;;;9.90;99.90;;;;;;5067067;28;20520;-78
2021/12/13 12:42:06;;;;;;;41.42;29.23;;;10.00;99.90;;;;;;5084159;28;20043;-78
2021/12/13 12:44:41;;;;;;;34.38;18.05;;;10.00;99.90;;;;;;5083979;28;20048;-77
2021/12/13 12:47:08;;;;;;;31.45;19.20;;;10.00;99.90;;;;;;5087570;28;20048;-78
2021/12/13 12:49:34;;;;;;;31.98;19.58;;;10.00;99.90;;;;;;5088446;28;20535;-78
2021/12/13 12:52:06;;;;;;;34.50;17.80;;;10.00;99.90;;;;;;5083881;28;20039;-78
2021/12/13 12:54:35;;;;;;;32.40;17.23;;;10.00;99.90;;;;;;5087017;28;20044;-78
2021/12/13 12:57:02;;;;;;;31.90;16.50;;;10.10;99.90;;;;;;5088037;28;20117;-78
2021/12/13 12:59:38;;;;;;;32.60;16.88;;;10.00;99.90;;;;;;5073779;28;20156;-78
2021/12/13 13:02:13;;;;;;;31.70;17.40;;;10.10;99.90;;;;;;5074622;28;20036;-78
2021/12/13 13:04:46;;;;;;;33.92;18.25;;;10.10;99.90;;;;;;5074864;28;20044;-78
2021/12/13 13:07:24;;;;;;;32.55;17.55;;;10.10;99.90;;;;;;5073227;28;20451;-78
2021/12/13 13:10:18;;;;;;;29.08;17.00;;;10.10;99.90;;;;;;5107306;28;20047;-78
2021/12/13 13:12:44;;;;;;;31.10;16.52;;;10.10;99.90;;;;;;5073407;28;20051;-78
2021/12/13 13:15:14;;;;;;;32.00;16.70;;;10.10;99.90;;;;;;5074116;28;20126;-78
2021/12/13 13:17:47;;;;;;;28.67;16.55;;;10.10;99.90;;;;;;5074103;28;20481;-78
2021/12/13 13:20:21;;;;;;;30.67;16.63;;;10.10;99.90;;;;;;5071326;28;20048;-78
2021/12/13 13:22:50;;;;;;;35.53;16.75;;;10.10;99.90;;;;;;5073137;28;20043;-78
2021/12/13 13:25:21;;;;;;;30.20;15.82;;;10.10;99.90;;;;;;5090776;28;20040;-78
2021/12/13 13:27:47;;;;;;;27.95;16.40;;;10.20;99.90;;;;;;5106456;28;20048;-78
2021/12/13 13:30:32;;;;;;;30.60;16.25;;;10.10;99.90;;;;;;5090491;28;20093;-78
2021/12/13 13:32:58;;;;;;;33.15;17.67;;;10.20;99.90;;;;;;5090656;28;20046;-78
2021/12/13 13:35:24;;;;;;;32.58;16.35;;;10.20;99.90;;;;;;5085454;28;20040;-79
2021/12/13 13:37:50;;;;;;;31.52;16.13;;;10.10;99.90;;;;;;5089872;28;20059;-77
2021/12/13 13:40:21;;;;;;;28.15;15.35;;;10.20;99.90;;;;;;5105092;27;20039;-78
2021/12/13 13:42:55;;;;;;;40.33;21.48;;;10.20;99.90;;;;;;5092214;28;20067;-77
2021/12/13 13:45:28;;;;;;;33.30;17.05;;;10.20;99.90;;;;;;5097351;28;20082;-78
2021/12/13 13:47:56;;;;;;;34.95;19.20;;;10.20;99.90;;;;;;5087786;28;20038;-78
2021/12/13 13:50:24;;;;;;;31.58;20.67;;;10.20;99.90;;;;;;5090226;28;20039;-79
2021/12/13 13:52:54;;;;;;;42.58;25.65;;;10.20;99.90;;;;;;5089802;28;20055;-79
2021/12/13 13:55:31;;;;;;;32.05;18.63;;;10.20;99.90;;;;;;5100546;28;20036;-78
2021/12/13 13:58:01;;;;;;;32.42;19.40;;;10.10;99.90;;;;;;5072137;28;20506;-79
2021/12/13 14:00:57;;;;;;;33.58;18.15;;;10.10;99.90;;;;;;5073027;28;20097;-79
2021/12/13 14:03:33;;;;;;;37.88;20.90;;;10.10;99.90;;;;;;5074804;28;20033;-79
2021/12/13 14:05:58;;;;;;;38.65;21.60;;;10.10;99.90;;;;;;5088055;28;20032;-80
2021/12/13 14:08:27;;;;;;;54.55;33.00;;;10.10;99.90;;;;;;5087354;28;20032;-79
2021/12/13 14:10:57;;;;;;;40.33;22.73;;;10.10;99.90;;;;;;5089136;28;20056;-79
2021/12/13 14:13:23;;;;;;;37.15;21.75;;;10.10;99.90;;;;;;5085863;28;20424;-79
2021/12/13 14:15:51;;;;;;;33.08;18.40;;;10.10;99.90;;;;;;5070595;28;20063;-79
2021/12/13 14:18:23;;;;;;;49.47;31.42;;;10.10;99.90;;;;;;5071686;28;20040;-78
2021/12/13 14:20:57;;;;;;;34.53;21.05;;;10.10;99.90;;;;;;5072119;28;20442;-78
2021/12/13 14:23:27;;;;;;;32.60;17.63;;;9.90;99.90;;;;;;5089313;28;20097;-77
2021/12/13 14:25:53;;;;;;;29.13;16.77;;;9.90;99.90;;;;;;5085462;28;20032;-78
2021/12/13 14:28:33;;;;;;;25.83;14.77;;;9.90;99.90;;;;;;5066060;28;20044;-78
2021/12/13 14:31:00;;;;;;;28.45;15.57;;;9.80;99.90;;;;;;5069786;28;20044;-78
2021/12/13 14:33:30;;;;;;;29.45;15.52;;;9.80;99.90;;;;;;5073219;28;20040;-78
2021/12/13 14:36:10;;;;;;;29.02;15.30;;;9.80;99.90;;;;;;5079845;28;20044;-78
2021/12/13 14:38:39;;;;;;;26.23;15.05;;;9.80;99.90;;;;;;5077817;28;20148;-78
2021/12/13 14:41:08;;;;;;;31.05;15.50;;;9.70;99.90;;;;;;5084688;28;20507;-78
2021/12/13 14:43:40;;;;;;;29.38;15.70;;;9.70;99.90;;;;;;5068193;28;20111;-77
2021/12/13 14:46:15;;;;;;;27.42;15.55;;;9.70;99.90;;;;;;5076733;28;20040;-78
2021/12/13 14:48:41;;;;;;;32.73;17.87;;;9.60;99.90;;;;;;5096701;28;20059;-77
2021/12/13 14:51:11;;;;;;;31.05;15.70;;;9.60;99.90;;;;;;5069498;28;20040;-77
2021/12/13 14:53:39;;;;;;;29.25;15.35;;;9.60;99.90;;;;;;5064422;28;20549;-77
2021/12/13 14:56:14;;;;;;;32.88;18.45;;;9.60;99.90;;;;;;5065595;28;20089;-78
2021/12/13 14:58:54;;;;;;;30.50;15.93;;;9.60;99.90;;;;;;5063891;28;20032;-76
2021/12/13 15:01:27;;;;;;;36.92;21.27;;;9.60;99.90;;;;;;5070533;28;20044;-77
2021/12/13 15:04:16;;;;;;;31.08;17.25;;;9.60;99.90;;;;;;5066168;28;20043;-78
2021/12/13 15:06:46;;;;;;;32.65;19.20;;;9.50;99.90;;;;;;5063372;28;20277;-77
2021/12/13 15:09:17;;;;;;;31.92;18.60;;;9.50;99.90;;;;;;5085658;28;20538;-76
2021/12/13 15:11:48;;;;;;;34.67;18.33;;;9.40;99.90;;;;;;5063818;28;20096;-77
2021/12/13 15:14:27;;;;;;;30.67;17.55;;;9.40;99.90;;;;;;5057831;28;20508;-77
2021/12/13 15:16:55;;;;;;;35.08;17.73;;;9.40;99.90;;;;;;5078936;28;20063;-77
2021/12/13 15:19:22;;;;;;;34.88;17.67;;;9.30;99.90;;;;;;5068149;28;20041;-77
2021/12/13 15:21:55;;;;;;;31.60;16.05;;;9.30;99.90;;;;;;5080390;28;20047;-77
2021/12/13 15:24:22;;;;;;;36.08;20.52;;;9.30;99.90;;;;;;5068931;28;20044;-77
2021/12/13 15:26:58;;;;;;;33.35;19.65;;;9.20;99.90;;;;;;5081844;28;20084;-77
2021/12/13 15:29:30;;;;;;;34.55;17.67;;;9.20;99.90;;;;;;5066438;28;20044;-83
2021/12/13 15:32:04;;;;;;;30.15;16.20;;;9.30;99.90;;;;;;5080320;28;20040;-78
2021/12/13 15:34:52;;;;;;;29.73;14.60;;;9.20;99.90;;;;;;5079042;28;20050;-78
2021/12/13 15:37:31;;;;;;;26.33;14.82;;;9.20;99.90;;;;;;5096259;28;20032;-78
2021/12/13 15:40:02;;;;;;;31.45;14.88;;;9.20;99.90;;;;;;5079534;28;20036;-78
2021/12/13 15:42:29;;;;;;;27.75;14.70;;;9.20;99.90;;;;;;5086797;28;20517;-81
2021/12/13 15:45:15;;;;;;;28.35;15.23;;;9.20;99.90;;;;;;5093572;28;20516;-78
2021/12/13 15:50:33;;;;;;;28.42;15.68;;;9.30;99.90;;;;;;5102584;27;20118;-77
2021/12/13 15:53:07;;;;;;;29.52;15.05;;;9.30;99.90;;;;;;5070579;28;20048;-78
2021/12/13 15:55:46;;;;;;;30.08;15.63;;;9.30;99.90;;;;;;5067447;28;20032;-78
2021/12/13 15:58:32;;;;;;;26.00;14.75;;;9.20;99.90;;;;;;5094174;28;20038;-79
2021/12/13 16:01:24;;;;;;;28.67;15.35;;;9.30;99.90;;;;;;5069957;28;20031;-78
2021/12/13 16:03:56;;;;;;;28.08;15.68;;;9.30;99.90;;;;;;5079734;28;20048;-79
2021/12/13 16:06:26;;;;;;;28.45;15.48;;;9.20;99.90;;;;;;5096336;28;20044;-79
2021/12/13 16:09:04;;;;;;;27.38;15.93;;;9.20;99.90;;;;;;5079948;28;20040;-79
2021/12/13 16:11:49;;;;;;;28.42;16.25;;;9.20;99.90;;;;;;5071544;28;20052;-78
2021/12/13 16:14:35;;;;;;;31.40;15.85;;;9.20;99.90;;;;;;5070509;28;20036;-78
2021/12/13 16:17:07;;;;;;;27.38;14.75;;;9.20;99.90;;;;;;5075819;28;20192;-77
2021/12/13 16:19:51;;;;;;;23.83;13.95;;;9.20;99.90;;;;;;5083188;28;20035;-77
2021/12/13 16:22:54;;;;;;;29.42;14.85;;;9.10;99.90;;;;;;5103810;28;20291;-77
2021/12/13 16:25:30;;;;;;;32.15;17.60;;;9.10;99.90;;;;;;5073948;28;20039;-78
2021/12/13 16:28:14;;;;;;;29.10;15.27;;;9.10;99.90;;;;;;5056416;28;20051;-78
2021/12/13 16:30:45;;;;;;;29.42;15.32;;;9.00;99.90;;;;;;5076075;28;20166;-78
2021/12/13 16:33:23;;;;;;;29.65;15.93;;;9.10;99.90;;;;;;5087122;28;20496;-87
2021/12/13 16:35:55;;;;;;;32.25;15.48;;;9.10;99.90;;;;;;5089249;28;20082;-78
2021/12/13 16:38:22;;;;;;;28.17;15.55;;;9.10;99.90;;;;;;5073433;28;20040;-78
2021/12/13 16:40:50;;;;;;;31.77;15.20;;;9.10;99.90;;;;;;5098925;28;20540;-78
2021/12/13 16:43:18;;;;;;;25.98;15.35;;;9.10;99.90;;;;;;5091326;28;20102;-78
2021/12/13 16:45:48;;;;;;;27.95;15.23;;;9.10;99.90;;;;;;5081772;28;20098;-78
2021/12/13 16:48:27;;;;;;;29.60;15.50;;;9.10;99.90;;;;;;5081350;28;20075;-77
2021/12/13 16:50:55;;;;;;;27.98;15.00;;;9.20;99.90;;;;;;5082148;28;20577;-77
2021/12/13 16:53:21;;;;;;;29.98;16.08;;;9.10;99.90;;;;;;5084625;28;20122;-77
2021/12/13 16:55:48;;;;;;;24.48;15.05;;;9.10;99.90;;;;;;5099310;28;20044;-77
2021/12/13 16:58:16;;;;;;;31.27;15.57;;;9.20;99.90;;;;;;5078663;28;20112;-77
2021/12/13 17:00:49;;;;;;;33.88;16.58;;;9.20;99.90;;;;;;5087456;28;20040;-79
2021/12/13 17:03:22;;;;;;;25.75;15.05;;;9.20;99.90;;;;;;5073840;28;20504;-77
2021/12/13 17:05:57;;;;;;;26.90;15.60;;;9.20;99.90;;;;;;5081297;28;20048;-77
2021/12/13 17:08:29;;;;;;;33.28;17.63;;;9.10;99.90;;;;;;5078433;28;20044;-77
2021/12/13 17:10:59;;;;;;;25.20;14.68;;;9.20;99.90;;;;;;5065447;28;20036;-77
2021/12/13 17:13:50;;;;;;;24.65;14.27;;;9.20;99.90;;;;;;5061572;28;20052;-76
2021/12/13 17:16:20;;;;;;;28.30;16.20;;;9.20;99.90;;;;;;5061332;28;20117;-77
2021/12/13 17:18:57;;;;;;;28.98;15.77;;;9.20;99.90;;;;;;5067609;28;20036;-78
2021/12/13 17:21:33;;;;;;;28.88;16.50;;;9.20;99.90;;;;;;5068188;28;20492;-77
2021/12/13 17:24:01;;;;;;;22.42;14.27;;;9.20;99.90;;;;;;5067588;28;20028;-77
2021/12/13 17:26:48;;;;;;;28.33;15.73;;;9.20;99.90;;;;;;5080858;28;20050;-77
2021/12/13 17:29:29;;;;;;;27.60;16.08;;;9.20;99.90;;;;;;5078911;28;20040;-78
2021/12/13 17:32:06;;;;;;;32.05;17.90;;;9.20;99.90;;;;;;5083135;28;20087;-77
2021/12/13 17:34:38;;;;;;;26.98;15.20;;;9.20;99.90;;;;;;5100112;28;20387;-77
2021/12/13 17:37:22;;;;;;;25.30;14.30;;;9.20;99.90;;;;;;5066192;28;20032;-77
2021/12/13 17:40:11;;;;;;;26.27;14.98;;;9.20;99.90;;;;;;5083000;28;20501;-77
2021/12/13 17:42:37;;;;;;;26.08;15.50;;;9.20;99.90;;;;;;5060752;28;20506;-76
2021/12/13 17:45:14;;;;;;;24.35;15.15;;;9.20;99.90;;;;;;5086902;28;20174;-76
2021/12/13 17:47:41;;;;;;;29.30;15.18;;;9.20;99.90;;;;;;5097243;28;20098;-77
2021/12/13 17:50:18;;;;;;;25.00;15.27;;;9.20;99.90;;;;;;5086473;28;20043;-77
2021/12/13 17:52:53;;;;;;;32.00;17.00;;;9.20;99.90;;;;;;5097586;28;20515;-77
2021/12/13 17:55:21;;;;;;;29.60;16.50;;;9.20;99.90;;;;;;5063797;28;20028;-76
2021/12/13 17:57:50;;;;;;;29.08;14.95;;;9.20;99.90;;;;;;5087194;28;20047;-77
2021/12/13 18:00:29;;;;;;;26.58;15.52;;;9.20;99.90;;;;;;5073346;28;20514;-77
2021/12/13 18:03:20;;;;;;;28.02;15.95;;;9.20;99.90;;;;;;5086535;28;20059;-77
2021/12/13 18:05:46;;;;;;;24.42;14.75;;;9.20;99.90;;;;;;5065600;28;20032;-76
2021/12/13 18:08:16;;;;;;;28.83;16.55;;;9.20;99.90;;;;;;5057329;28;20505;-76
2021/12/13 18:10:42;;;;;;;26.23;16.35;;;9.20;99.90;;;;;;5077489;28;20036;-77
2021/12/13 18:13:13;;;;;;;27.77;15.77;;;9.20;99.90;;;;;;5102963;27;20460;-76
2021/12/13 18:15:49;;;;;;;28.08;16.60;;;9.20;99.90;;;;;;5083329;28;20039;-76
2021/12/13 18:18:24;;;;;;;26.88;16.70;;;9.20;99.90;;;;;;5066342;28;20120;-77
2021/12/13 18:21:02;;;;;;;29.73;15.70;;;9.20;99.90;;;;;;5091097;28;20036;-77
2021/12/13 18:23:33;;;;;;;25.25;15.32;;;9.30;99.90;;;;;;5061029;28;20036;-76
2021/12/13 18:26:16;;;;;;;28.52;15.35;;;9.20;99.90;;;;;;5095582;28;20164;-77
2021/12/13 18:28:41;;;;;;;25.02;15.60;;;9.20;99.90;;;;;;5090981;28;20069;-77
2021/12/13 18:31:33;;;;;;;27.95;15.70;;;9.20;99.90;;;;;;5096357;28;20057;-76
2021/12/13 18:34:05;;;;;;;26.08;14.43;;;9.10;99.90;;;;;;5064640;28;20370;-77
2021/12/13 18:36:45;;;;;;;28.00;15.50;;;9.10;99.90;;;;;;5058518;28;20071;-77
2021/12/13 18:39:17;;;;;;;26.30;15.90;;;9.20;99.90;;;;;;5094612;28;20036;-77
2021/12/13 18:41:58;;;;;;;23.25;15.57;;;9.10;99.90;;;;;;5090655;28;20086;-77
2021/12/13 18:45:11;;;;;;;26.88;16.88;;;9.20;99.90;;;;;;5079190;28;20096;-77
2021/12/13 18:47:19;;;;;;;26.45;16.08;;;9.10;99.90;;;;;;5072783;28;20056;-77
2021/12/13 18:49:56;;;;;;;25.63;15.38;;;9.10;99.90;;;;;;5080575;28;20043;-76
2021/12/13 18:52:30;;;;;;;27.42;17.35;;;9.10;99.90;;;;;;5059092;28;20416;-76
2021/12/13 18:55:10;;;;;;;31.75;16.75;;;9.10;99.90;;;;;;5095087;28;20425;-77
2021/12/13 18:58:08;;;;;;;29.35;18.38;;;9.10;99.90;;;;;;5061418;28;20048;-77
2021/12/13 19:00:45;;;;;;;32.97;19.70;;;9.10;99.90;;;;;;5083066;28;20086;-76
2021/12/13 19:03:25;;;;;;;25.30;14.82;;;9.10;99.90;;;;;;5071319;28;20482;-77
2021/12/13 19:06:15;;;;;;;30.27;17.50;;;9.10;99.90;;;;;;5076762;28;20481;-76
2021/12/13 19:08:43;;;;;;;27.65;15.68;;;9.10;99.90;;;;;;5070115;28;20060;-76
2021/12/13 19:11:28;;;;;;;24.25;16.30;;;9.10;99.90;;;;;;5080240;28;20113;-76
2021/12/13 19:14:07;;;;;;;26.92;16.10;;;9.10;99.90;;;;;;5078078;28;20571;-76
2021/12/13 19:16:39;;;;;;;26.77;16.90;;;9.10;99.90;;;;;;5082500;28;20840;-77
2021/12/13 19:19:13;;;;;;;23.77;16.05;;;9.10;99.90;;;;;;5056935;28;20039;-78
2021/12/13 19:21:50;;;;;;;24.02;15.50;;;9.10;99.90;;;;;;5076062;28;20040;-77
2021/12/13 19:24:24;;;;;;;28.45;16.40;;;9.10;99.90;;;;;;5097228;28;20493;-77
2021/12/13 19:27:13;;;;;;;23.73;15.13;;;9.10;99.90;;;;;;5081583;28;20040;-76
2021/12/13 19:29:43;;;;;;;26.67;15.52;;;9.10;99.90;;;;;;5063418;28;20106;-77
2021/12/13 19:32:11;;;;;;;26.38;17.15;;;9.10;99.90;;;;;;5092828;28;20668;-77
2021/12/13 19:34:44;;;;;;;27.42;16.50;;;9.10;99.90;;;;;;5074921;28;20493;-77
2021/12/13 19:37:14;;;;;;;24.77;15.50;;;9.10;99.90;;;;;;5090175;28;20040;-76
2021/12/13 19:40:09;;;;;;;27.65;17.20;;;9.10;99.90;;;;;;5072852;28;20036;-78
2021/12/13 19:42:40;;;;;;;27.90;17.20;;;9.10;99.90;;;;;;5061643;28;20189;-77
2021/12/13 19:45:28;;;;;;;29.73;16.98;;;9.10;99.90;;;;;;5097231;28;20083;-78
2021/12/13 19:48:06;;;;;;;26.10;15.88;;;9.00;99.90;;;;;;5061633;28;20111;-77
2021/12/13 19:50:50;;;;;;;31.15;16.67;;;9.00;99.90;;;;;;5094363;28;20036;-77
2021/12/13 19:53:24;;;;;;;27.00;16.00;;;9.10;99.90;;;;;;5075699;28;20524;-77
2021/12/13 19:55:58;;;;;;;27.33;17.65;;;9.00;99.90;;;;;;5064772;28;22180;-77
2021/12/13 19:58:32;;;;;;;29.77;17.92;;;9.10;99.90;;;;;;5071469;28;20043;-77
2021/12/13 20:01:08;;;;;;;26.30;16.92;;;9.00;99.90;;;;;;5095677;28;20035;-78
2021/12/13 20:03:41;;;;;;;27.38;16.58;;;9.00;99.90;;;;;;5095186;28;20044;-77
2021/12/13 20:06:12;;;;;;;26.15;15.43;;;9.00;99.90;;;;;;5063455;28;20044;-77
2021/12/13 20:08:58;;;;;;;24.02;16.15;;;9.00;99.90;;;;;;5065079;28;20511;-77
2021/12/13 20:11:32;;;;;;;;;;;9.00;99.90;;;;;;5075584;28;20054;-77
2021/12/13 20:14:22;;;;;;;25.08;15.48;;;9.00;99.90;;;;;;5093842;28;20002;-77
2021/12/13 20:17:13;;;;;;;27.48;16.00;;;8.90;99.90;;;;;;5076406;28;20039;-77
2021/12/13 20:20:07;;;;;;;27.23;16.63;;;9.00;99.90;;;;;;5073349;28;20493;-78
2021/12/13 20:22:40;;;;;;;27.00;15.52;;;9.00;99.90;;;;;;5074015;28;20040;-77
2021/12/13 20:25:08;;;;;;;28.45;17.75;;;9.00;99.90;;;;;;5091103;28;20112;-77
2021/12/13 20:27:52;;;;;;;27.05;17.10;;;9.00;99.90;;;;;;5078479;28;20037;-77
2021/12/13 20:30:42;;;;;;;27.45;16.42;;;9.00;99.90;;;;;;5078566;28;20040;-77
2021/12/13 20:33:34;;;;;;;26.63;15.15;;;9.00;99.90;;;;;;5098064;28;20124;-77
2021/12/13 20:36:24;;;;;;;30.73;18.35;;;9.00;99.90;;;;;;5062686;28;20055;-77
2021/12/13 20:38:56;;;;;;;23.95;15.63;;;8.90;99.90;;;;;;5082937;28;20040;-77
2021/12/13 20:41:27;;;;;;;26.38;15.65;;;8.90;99.90;;;;;;5063415;28;20044;-78
2021/12/13 20:44:06;;;;;;;28.33;15.38;;;8.90;99.90;;;;;;5056882;28;20447;-78
2021/12/13 20:46:42;;;;;;;28.10;16.17;;;8.90;99.90;;;;;;5060464;28;20138;-78
2021/12/13 20:49:16;;;;;;;29.42;16.60;;;9.00;99.90;;;;;;5061332;28;20731;-78
2021/12/13 20:51:50;;;;;;;25.35;15.48;;;8.90;99.90;;;;;;5075215;28;20174;-78
2021/12/13 20:54:20;;;;;;;24.50;15.93;;;8.90;99.90;;;;;;5064841;28;20036;-76
2021/12/13 20:56:49;;;;;;;27.42;16.08;;;8.90;99.90;;;;;;5061001;28;20040;-79
2021/12/13 20:59:24;;;;;;;29.77;16.38;;;8.90;99.90;;;;;;5074990;28;20036;-79
2021/12/13 21:02:19;;;;;;;25.20;15.77;;;8.90;99.90;;;;;;5075006;28;20043;-78
2021/12/13 21:04:53;;;;;;;22.02;13.55;;;8.90;99.90;;;;;;5074662;28;20044;-78
2021/12/13 21:07:31;;;;;;;24.73;15.38;;;8.90;99.90;;;;;;5075666;28;20483;-77
2021/12/13 21:10:16;;;;;;;21.23;13.93;;;8.90;99.90;;;;;;5090742;28;20044;-81
2021/12/13 21:12:47;;;;;;;23.65;15.52;;;8.90;99.90;;;;;;5078743;28;20045;-78
2021/12/13 21:15:29;;;;;;;23.88;14.70;;;8.90;99.90;;;;;;5075534;28;20059;-77
2021/12/13 21:18:08;;;;;;;21.33;14.00;;;8.90;99.90;;;;;;5065378;28;20135;-77
2021/12/13 21:20:54;;;;;;;24.75;16.55;;;8.90;99.90;;;;;;5081135;28;20397;-77
2021/12/13 21:23:24;;;;;;;26.55;17.40;;;8.90;99.90;;;;;;5080960;28;20044;-77
2021/12/13 21:25:55;;;;;;;24.67;16.13;;;9.00;99.90;;;;;;5081455;28;20485;-77
2021/12/13 21:28:31;;;;;;;22.58;14.25;;;8.90;99.90;;;;;;5067477;28;20035;-78
2021/12/13 21:31:22;;;;;;;20.90;13.82;;;8.90;99.90;;;;;;5064127;28;20670;-78
2021/12/13 21:34:08;;;;;;;20.20;13.50;;;8.90;99.90;;;;;;5060611;28;20370;-78
2021/12/13 21:39:18;;;;;;;21.05;13.45;;;8.80;99.90;;;;;;5066846;28;20040;-77